Terminal Aerodrome Forecast
Issued by NWS Cleveland, OH

Home | Current Version | Previous Version | Text Only | Print | Product List | Glossary On
Versions: 1 2 3 4 5 6 7 8 9 10 11 12 13 14 15 16 17 18 19 20 21 22 23 24 25
000
FTUS41 KCLE 212300
TAFCLE
TAF
KCLE 212324Z 2200/2306 15005KT P6SM OVC022
     FM220100 15005KT 6SM HZ SCT020 BKN250
      TEMPO 2201/2202 BKN020
     FM220400 14005KT 5SM BR BKN250
      TEMPO 2209/2213 3SM BR
     FM221400 15006KT P6SM SCT045 BKN120
     FM221800 15006KT P6SM BKN045
     FM222200 13008KT P6SM OVC035
     FM230400 13010KT P6SM OVC025=

USA.gov is the U.S. government's official web portal to all federal, state and local government web resources and services.